Wind From: 11-12-2017 07:30 Until: 12-12-2017 06:00 warning for: Wind Level: Orange info button

Power and phone distribution networks may be disrupted for relatively long periods., Roofs and chimneys can be damaged. , Tree branches may break. , Vehicles can be deported. , Traffic may be disrupted, particularly on secondary roads in forest areas. Limit your trips. , Limit your speed in highway driving, especially if you drive a vehicle or hitch sensitive to wind. , Do not go for walks in forests or along the coast., In town, be vigilant against possible falling objects., Do not work on roofs and do not touch any electrical line fallen on the ground., Store or secure sensitive objects to wind or likely to be damaged., Always install power generators outside buildings. 


Meteo18 Weather Cam more information Meteo18 Weather Cam


Thunder radar more information blitzortung!


Rain radar more information rain snow radar


Visit our other weather sites:

Template documentation
and downloads

And another site



Weather Underground History page Text

Daily Summary for June 7, 2017 Units:  Both    English   Metric
« Previous Day
Next Day »
Daily Weekly Monthly Yearly Custom
  High: Low: Average:
Temperature: 66.7 °F /  19.3 °C 48.9 °F /  9.4 °C 57 °F /  13.9 °C
Dew Point: 50.2 °F /  10.1 °C 44.8 °F /  7.1 °C 47.5 °F /  8.6 °C
Humidity: 92 % 50 % 72 %
Wind Speed: 16 mph /  25.7 km/h - 4.6 mph /  7.4 km/h
Wind Gust: 19 mph /  30.6 km/h - -
Wind:- - WSW
Pressure: 30.2 in /  1022.2 hPa 30 in /  1016.8 hPa -
Precipitation: 0 in /  0.0 mm    
Historical Graphs
 
 
Tabular Data for June 7, 2017
Time Temperature Dew Point Pressure Wind Wind Speed Wind Gust Humidity Rainfall Rate (Hourly)
00:02 51.8 °F /  11.0 °C 48.4 °F /  9.1 °C 30 in /  1016.8 hPa SW 2 mph /  3.2 km/h 8 mph /  12.9 km/h 88 % 0 in /  0.0 mm
00:07 51.4 °F /  10.8 °C 48.4 °F /  9.1 °C 30 in /  1017.2 hPa SSW 4 mph /  6.4 km/h 7 mph /  11.3 km/h 89 % 0 in /  0.0 mm
00:12 51.1 °F /  10.6 °C 48.2 °F /  9.0 °C 30 in /  1017.2 hPa SSW 3 mph /  4.8 km/h 7 mph /  11.3 km/h 90 % 0 in /  0.0 mm
00:17 50.7 °F /  10.4 °C 47.8 °F /  8.8 °C 30 in /  1017.2 hPa South 4 mph /  6.4 km/h 7 mph /  11.3 km/h 90 % 0 in /  0.0 mm
00:22 50.5 °F /  10.3 °C 48 °F /  8.9 °C 30 in /  1017.2 hPa SSW 2 mph /  3.2 km/h 7 mph /  11.3 km/h 91 % 0 in /  0.0 mm
00:27 50.5 °F /  10.3 °C 48.4 °F /  9.1 °C 30 in /  1017.2 hPa SW 6 mph /  9.7 km/h 8 mph /  12.9 km/h 92 % 0 in /  0.0 mm
00:32 50.7 °F /  10.4 °C 48.2 °F /  9.0 °C 30 in /  1017.2 hPa SSW 2 mph /  3.2 km/h 10 mph /  16.1 km/h 91 % 0 in /  0.0 mm
00:42 51.1 °F /  10.6 °C 48.2 °F /  9.0 °C 30 in /  1017.2 hPa WSW 3 mph /  4.8 km/h 10 mph /  16.1 km/h 90 % 0 in /  0.0 mm
00:47 51.3 °F /  10.7 °C 48.2 °F /  9.0 °C 30 in /  1017.2 hPa WSW 5 mph /  8.0 km/h 13 mph /  20.9 km/h 89 % 0 in /  0.0 mm
00:52 51.3 °F /  10.7 °C 48.2 °F /  9.0 °C 30 in /  1017.2 hPa SW 9 mph /  14.5 km/h 13 mph /  20.9 km/h 89 % 0 in /  0.0 mm
00:57 51.3 °F /  10.7 °C 47.8 °F /  8.8 °C 30.1 in /  1017.5 hPa WSW 6 mph /  9.7 km/h 13 mph /  20.9 km/h 88 % 0 in /  0.0 mm
01:02 51.3 °F /  10.7 °C 47.8 °F /  8.8 °C 30.1 in /  1017.5 hPa WSW 5 mph /  8.0 km/h 13 mph /  20.9 km/h 88 % 0 in /  0.0 mm
01:07 51.1 °F /  10.6 °C 47.7 °F /  8.7 °C 30.1 in /  1017.5 hPa SW 4 mph /  6.4 km/h 13 mph /  20.9 km/h 88 % 0 in /  0.0 mm
01:12 51.1 °F /  10.6 °C 47.7 °F /  8.7 °C 30.1 in /  1017.8 hPa West 5 mph /  8.0 km/h 12 mph /  19.3 km/h 88 % 0 in /  0.0 mm
01:17 51.1 °F /  10.6 °C 47.7 °F /  8.7 °C 30.1 in /  1017.8 hPa SW 6 mph /  9.7 km/h 13 mph /  20.9 km/h 88 % 0 in /  0.0 mm
01:22 51.1 °F /  10.6 °C 47.7 °F /  8.7 °C 30.1 in /  1017.8 hPa WSW 4 mph /  6.4 km/h 13 mph /  20.9 km/h 88 % 0 in /  0.0 mm
01:27 51.1 °F /  10.6 °C 47.3 °F /  8.5 °C 30.1 in /  1017.8 hPa WSW 7 mph /  11.3 km/h 13 mph /  20.9 km/h 87 % 0 in /  0.0 mm
01:32 51.1 °F /  10.6 °C 47.3 °F /  8.5 °C 30.1 in /  1017.8 hPa SW 3 mph /  4.8 km/h 11 mph /  17.7 km/h 87 % 0 in /  0.0 mm
01:37 51.1 °F /  10.6 °C 47.1 °F /  8.4 °C 30.1 in /  1017.8 hPa West 6 mph /  9.7 km/h 11 mph /  17.7 km/h 86 % 0 in /  0.0 mm
01:42 51.1 °F /  10.6 °C 47.1 °F /  8.4 °C 30.1 in /  1017.8 hPa SW 6 mph /  9.7 km/h 11 mph /  17.7 km/h 86 % 0 in /  0.0 mm
01:47 51.1 °F /  10.6 °C 47.1 °F /  8.4 °C 30.1 in /  1017.8 hPa SSW 4 mph /  6.4 km/h 10 mph /  16.1 km/h 86 % 0 in /  0.0 mm
01:52 50.7 °F /  10.4 °C 46.9 °F /  8.3 °C 30.1 in /  1017.8 hPa SW 8 mph /  12.9 km/h 11 mph /  17.7 km/h 87 % 0 in /  0.0 mm
01:57 50.5 °F /  10.3 °C 46.8 °F /  8.2 °C 30.1 in /  1017.8 hPa WSW 5 mph /  8.0 km/h 11 mph /  17.7 km/h 87 % 0 in /  0.0 mm
02:02 50.4 °F /  10.2 °C 46.9 °F /  8.3 °C 30.1 in /  1017.8 hPa WSW 4 mph /  6.4 km/h 11 mph /  17.7 km/h 88 % 0 in /  0.0 mm
02:07 50.4 °F /  10.2 °C 46.9 °F /  8.3 °C 30.1 in /  1017.8 hPa WSW 4 mph /  6.4 km/h 9 mph /  14.5 km/h 88 % 0 in /  0.0 mm
02:12 50.4 °F /  10.2 °C 46.6 °F /  8.1 °C 30.1 in /  1017.8 hPa SW 5 mph /  8.0 km/h 9 mph /  14.5 km/h 87 % 0 in /  0.0 mm
02:17 50.5 °F /  10.3 °C 46.8 °F /  8.2 °C 30.1 in /  1017.8 hPa West 4 mph /  6.4 km/h 11 mph /  17.7 km/h 87 % 0 in /  0.0 mm
02:22 50.4 °F /  10.2 °C 46.6 °F /  8.1 °C 30.1 in /  1017.8 hPa SW 6 mph /  9.7 km/h 13 mph /  20.9 km/h 87 % 0 in /  0.0 mm
02:27 50.4 °F /  10.2 °C 46.6 °F /  8.1 °C 30.1 in /  1017.8 hPa SW 5 mph /  8.0 km/h 13 mph /  20.9 km/h 87 % 0 in /  0.0 mm
02:32 50.2 °F /  10.1 °C 46.4 °F /  8.0 °C 30.1 in /  1017.8 hPa SW 4 mph /  6.4 km/h 13 mph /  20.9 km/h 87 % 0 in /  0.0 mm
02:37 50 °F /  10.0 °C 46.2 °F /  7.9 °C 30.1 in /  1017.8 hPa WSW 4 mph /  6.4 km/h 13 mph /  20.9 km/h 87 % 0 in /  0.0 mm
02:42 49.8 °F /  9.9 °C 46.4 °F /  8.0 °C 30.1 in /  1018.2 hPa WSW 8 mph /  12.9 km/h 13 mph /  20.9 km/h 88 % 0 in /  0.0 mm
02:47 49.8 °F /  9.9 °C 46 °F /  7.8 °C 30.1 in /  1018.2 hPa SSW 5 mph /  8.0 km/h 11 mph /  17.7 km/h 87 % 0 in /  0.0 mm
02:52 49.8 °F /  9.9 °C 46 °F /  7.8 °C 30.1 in /  1018.2 hPa WSW 3 mph /  4.8 km/h 11 mph /  17.7 km/h 87 % 0 in /  0.0 mm
02:57 49.8 °F /  9.9 °C 46 °F /  7.8 °C 30.1 in /  1018.2 hPa West 4 mph /  6.4 km/h 11 mph /  17.7 km/h 87 % 0 in /  0.0 mm
03:02 49.8 °F /  9.9 °C 46 °F /  7.8 °C 30.1 in /  1018.2 hPa SW 8 mph /  12.9 km/h 11 mph /  17.7 km/h 87 % 0 in /  0.0 mm
03:07 49.8 °F /  9.9 °C 46 °F /  7.8 °C 30.1 in /  1018.2 hPa SW 4 mph /  6.4 km/h 12 mph /  19.3 km/h 87 % 0 in /  0.0 mm
03:12 49.8 °F /  9.9 °C 46 °F /  7.8 °C 30.1 in /  1018.2 hPa WSW 5 mph /  8.0 km/h 12 mph /  19.3 km/h 87 % 0 in /  0.0 mm
03:17 49.8 °F /  9.9 °C 46 °F /  7.8 °C 30.1 in /  1018.5 hPa WSW 6 mph /  9.7 km/h 12 mph /  19.3 km/h 87 % 0 in /  0.0 mm
03:22 49.8 °F /  9.9 °C 46 °F /  7.8 °C 30.1 in /  1018.5 hPa WSW 4 mph /  6.4 km/h 11 mph /  17.7 km/h 87 % 0 in /  0.0 mm
03:27 49.6 °F /  9.8 °C 45.9 °F /  7.7 °C 30.1 in /  1018.2 hPa SSW 4 mph /  6.4 km/h 11 mph /  17.7 km/h 87 % 0 in /  0.0 mm
03:32 49.6 °F /  9.8 °C 45.9 °F /  7.7 °C 30.1 in /  1018.5 hPa SSW 4 mph /  6.4 km/h 11 mph /  17.7 km/h 87 % 0 in /  0.0 mm
03:37 49.8 °F /  9.9 °C 46 °F /  7.8 °C 30.1 in /  1018.5 hPa SSW 3 mph /  4.8 km/h 13 mph /  20.9 km/h 87 % 0 in /  0.0 mm
03:42 49.8 °F /  9.9 °C 46 °F /  7.8 °C 30.1 in /  1018.5 hPa SSW 5 mph /  8.0 km/h 13 mph /  20.9 km/h 87 % 0 in /  0.0 mm
03:52 49.8 °F /  9.9 °C 46 °F /  7.8 °C 30.1 in /  1018.5 hPa SSW 4 mph /  6.4 km/h 11 mph /  17.7 km/h 87 % 0 in /  0.0 mm
03:57 49.8 °F /  9.9 °C 46 °F /  7.8 °C 30.1 in /  1018.5 hPa SSW 4 mph /  6.4 km/h 11 mph /  17.7 km/h 87 % 0 in /  0.0 mm
04:02 49.8 °F /  9.9 °C 46 °F /  7.8 °C 30.1 in /  1018.5 hPa West 6 mph /  9.7 km/h 13 mph /  20.9 km/h 87 % 0 in /  0.0 mm
04:07 49.8 °F /  9.9 °C 46 °F /  7.8 °C 30.1 in /  1018.8 hPa SW 5 mph /  8.0 km/h 13 mph /  20.9 km/h 87 % 0 in /  0.0 mm
04:12 49.8 °F /  9.9 °C 46 °F /  7.8 °C 30.1 in /  1018.8 hPa SW 3 mph /  4.8 km/h 10 mph /  16.1 km/h 87 % 0 in /  0.0 mm
04:17 49.8 °F /  9.9 °C 46 °F /  7.8 °C 30.1 in /  1018.8 hPa WSW 11 mph /  17.7 km/h 11 mph /  17.7 km/h 87 % 0 in /  0.0 mm
04:22 49.8 °F /  9.9 °C 46 °F /  7.8 °C 30.1 in /  1018.8 hPa SSW 2 mph /  3.2 km/h 13 mph /  20.9 km/h 87 % 0 in /  0.0 mm
04:27 49.6 °F /  9.8 °C 46.2 °F /  7.9 °C 30.1 in /  1018.8 hPa WSW 3 mph /  4.8 km/h 13 mph /  20.9 km/h 88 % 0 in /  0.0 mm
04:32 49.6 °F /  9.8 °C 46.2 °F /  7.9 °C 30.1 in /  1018.8 hPa WSW 6 mph /  9.7 km/h 13 mph /  20.9 km/h 88 % 0 in /  0.0 mm
04:37 49.5 °F /  9.7 °C 46 °F /  7.8 °C 30.1 in /  1018.8 hPa WSW 6 mph /  9.7 km/h 11 mph /  17.7 km/h 88 % 0 in /  0.0 mm
04:42 49.3 °F /  9.6 °C 45.9 °F /  7.7 °C 30.1 in /  1019.2 hPa WSW 5 mph /  8.0 km/h 10 mph /  16.1 km/h 88 % 0 in /  0.0 mm
04:47 49.3 °F /  9.6 °C 46.2 °F /  7.9 °C 30.1 in /  1019.2 hPa WSW 7 mph /  11.3 km/h 10 mph /  16.1 km/h 89 % 0 in /  0.0 mm
04:52 49.3 °F /  9.6 °C 46.2 °F /  7.9 °C 30.1 in /  1019.2 hPa SW 9 mph /  14.5 km/h 10 mph /  16.1 km/h 89 % 0 in /  0.0 mm
04:57 49.1 °F /  9.5 °C 46 °F /  7.8 °C 30.1 in /  1019.2 hPa WSW 5 mph /  8.0 km/h 12 mph /  19.3 km/h 89 % 0 in /  0.0 mm
05:02 49.1 °F /  9.5 °C 46 °F /  7.8 °C 30.1 in /  1019.2 hPa WSW 4 mph /  6.4 km/h 12 mph /  19.3 km/h 89 % 0 in /  0.0 mm
05:07 49.1 °F /  9.5 °C 46 °F /  7.8 °C 30.1 in /  1019.2 hPa SW 2 mph /  3.2 km/h 9 mph /  14.5 km/h 89 % 0 in /  0.0 mm
05:12 49.1 °F /  9.5 °C 46 °F /  7.8 °C 30.1 in /  1019.2 hPa West 3 mph /  4.8 km/h 10 mph /  16.1 km/h 89 % 0 in /  0.0 mm
05:17 49.1 °F /  9.5 °C 46 °F /  7.8 °C 30.1 in /  1019.2 hPa SW 3 mph /  4.8 km/h 10 mph /  16.1 km/h 89 % 0 in /  0.0 mm
05:22 48.9 °F /  9.4 °C 45.9 °F /  7.7 °C 30.1 in /  1019.2 hPa SW 2 mph /  3.2 km/h 9 mph /  14.5 km/h 89 % 0 in /  0.0 mm
05:27 48.9 °F /  9.4 °C 46 °F /  7.8 °C 30.1 in /  1019.5 hPa West 3 mph /  4.8 km/h 8 mph /  12.9 km/h 90 % 0 in /  0.0 mm
05:32 48.9 °F /  9.4 °C 46 °F /  7.8 °C 30.1 in /  1019.5 hPa WSW 3 mph /  4.8 km/h 8 mph /  12.9 km/h 90 % 0 in /  0.0 mm
05:37 48.9 °F /  9.4 °C 46 °F /  7.8 °C 30.1 in /  1019.5 hPa West 4 mph /  6.4 km/h 9 mph /  14.5 km/h 90 % 0 in /  0.0 mm
05:42 49.1 °F /  9.5 °C 46.2 °F /  7.9 °C 30.1 in /  1019.5 hPa South 2 mph /  3.2 km/h 11 mph /  17.7 km/h 90 % 0 in /  0.0 mm
05:47 49.1 °F /  9.5 °C 46.2 °F /  7.9 °C 30.1 in /  1019.5 hPa West 10 mph /  16.1 km/h 11 mph /  17.7 km/h 90 % 0 in /  0.0 mm
05:52 49.1 °F /  9.5 °C 46.2 °F /  7.9 °C 30.1 in /  1019.5 hPa West 2 mph /  3.2 km/h 11 mph /  17.7 km/h 90 % 0 in /  0.0 mm
05:57 49.1 °F /  9.5 °C 46.2 °F /  7.9 °C 30.1 in /  1019.5 hPa WSW 5 mph /  8.0 km/h 11 mph /  17.7 km/h 90 % 0 in /  0.0 mm
06:02 49.1 °F /  9.5 °C 46.2 °F /  7.9 °C 30.1 in /  1019.5 hPa SW 3 mph /  4.8 km/h 11 mph /  17.7 km/h 90 % 0 in /  0.0 mm
06:12 49.1 °F /  9.5 °C 46.2 °F /  7.9 °C 30.1 in /  1019.9 hPa WSW 7 mph /  11.3 km/h 12 mph /  19.3 km/h 90 % 0 in /  0.0 mm
06:17 49.1 °F /  9.5 °C 46.2 °F /  7.9 °C 30.1 in /  1019.9 hPa West 3 mph /  4.8 km/h 12 mph /  19.3 km/h 90 % 0 in /  0.0 mm
06:22 48.9 °F /  9.4 °C 46 °F /  7.8 °C 30.1 in /  1019.9 hPa SW 5 mph /  8.0 km/h 10 mph /  16.1 km/h 90 % 0 in /  0.0 mm
06:27 49.1 °F /  9.5 °C 46.2 °F /  7.9 °C 30.1 in /  1019.9 hPa WSW 5 mph /  8.0 km/h 10 mph /  16.1 km/h 90 % 0 in /  0.0 mm
06:32 49.1 °F /  9.5 °C 46.6 °F /  8.1 °C 30.1 in /  1019.9 hPa SW 3 mph /  4.8 km/h 10 mph /  16.1 km/h 91 % 0 in /  0.0 mm
06:42 49.1 °F /  9.5 °C 46.6 °F /  8.1 °C 30.1 in /  1019.9 hPa WSW 5 mph /  8.0 km/h 10 mph /  16.1 km/h 91 % 0 in /  0.0 mm
06:47 49.3 °F /  9.6 °C 46.8 °F /  8.2 °C 30.1 in /  1019.9 hPa SW 4 mph /  6.4 km/h 10 mph /  16.1 km/h 91 % 0 in /  0.0 mm
07:02 49.5 °F /  9.7 °C 46.6 °F /  8.1 °C 30.1 in /  1020.2 hPa SW 3 mph /  4.8 km/h 10 mph /  16.1 km/h 90 % 0 in /  0.0 mm
07:07 49.5 °F /  9.7 °C 46.6 °F /  8.1 °C 30.1 in /  1020.2 hPa West 7 mph /  11.3 km/h 10 mph /  16.1 km/h 90 % 0 in /  0.0 mm
07:12 49.6 °F /  9.8 °C 46.8 °F /  8.2 °C 30.1 in /  1020.2 hPa SW 3 mph /  4.8 km/h 10 mph /  16.1 km/h 90 % 0 in /  0.0 mm
07:17 49.8 °F /  9.9 °C 46.9 °F /  8.3 °C 30.1 in /  1020.2 hPa WSW 2 mph /  3.2 km/h 9 mph /  14.5 km/h 90 % 0 in /  0.0 mm
07:22 50.2 °F /  10.1 °C 47.1 °F /  8.4 °C 30.1 in /  1020.5 hPa SW 3 mph /  4.8 km/h 9 mph /  14.5 km/h 89 % 0 in /  0.0 mm
07:27 50.4 °F /  10.2 °C 47.3 °F /  8.5 °C 30.1 in /  1020.5 hPa WSW 1 mph /  1.6 km/h 8 mph /  12.9 km/h 89 % 0 in /  0.0 mm
07:32 50.5 °F /  10.3 °C 47.5 °F /  8.6 °C 30.1 in /  1020.5 hPa SSW 3 mph /  4.8 km/h 8 mph /  12.9 km/h 89 % 0 in /  0.0 mm
07:42 50.9 °F /  10.5 °C 47.5 °F /  8.6 °C 30.1 in /  1020.5 hPa SW 4 mph /  6.4 km/h 9 mph /  14.5 km/h 88 % 0 in /  0.0 mm
07:47 51.1 °F /  10.6 °C 47.7 °F /  8.7 °C 30.1 in /  1020.5 hPa WSW 5 mph /  8.0 km/h 9 mph /  14.5 km/h 88 % 0 in /  0.0 mm
07:52 51.3 °F /  10.7 °C 47.8 °F /  8.8 °C 30.1 in /  1020.5 hPa WSW 7 mph /  11.3 km/h 10 mph /  16.1 km/h 88 % 0 in /  0.0 mm
07:57 51.3 °F /  10.7 °C 47.5 °F /  8.6 °C 30.1 in /  1020.5 hPa SW 4 mph /  6.4 km/h 15 mph /  24.1 km/h 87 % 0 in /  0.0 mm
08:02 51.4 °F /  10.8 °C 47.7 °F /  8.7 °C 30.1 in /  1020.5 hPa WSW 9 mph /  14.5 km/h 15 mph /  24.1 km/h 87 % 0 in /  0.0 mm
08:12 52 °F /  11.1 °C 47.8 °F /  8.8 °C 30.2 in /  1020.9 hPa WSW 5 mph /  8.0 km/h 12 mph /  19.3 km/h 86 % 0 in /  0.0 mm
08:27 52.5 °F /  11.4 °C 48.2 °F /  9.0 °C 30.2 in /  1020.9 hPa WNW 3 mph /  4.8 km/h 12 mph /  19.3 km/h 85 % 0 in /  0.0 mm
08:32 52.5 °F /  11.4 °C 47.8 °F /  8.8 °C 30.2 in /  1020.9 hPa West 3 mph /  4.8 km/h 12 mph /  19.3 km/h 84 % 0 in /  0.0 mm
08:37 52.5 °F /  11.4 °C 47.5 °F /  8.6 °C 30.2 in /  1020.9 hPa NW 8 mph /  12.9 km/h 11 mph /  17.7 km/h 83 % 0 in /  0.0 mm
08:47 52.9 °F /  11.6 °C 47.8 °F /  8.8 °C 30.2 in /  1021.2 hPa WSW 6 mph /  9.7 km/h 13 mph /  20.9 km/h 83 % 0 in /  0.0 mm
08:52 52.9 °F /  11.6 °C 47.8 °F /  8.8 °C 30.2 in /  1021.2 hPa WNW 3 mph /  4.8 km/h 13 mph /  20.9 km/h 83 % 0 in /  0.0 mm
08:57 53.1 °F /  11.7 °C 48 °F /  8.9 °C 30.2 in /  1021.2 hPa WSW 6 mph /  9.7 km/h 11 mph /  17.7 km/h 83 % 0 in /  0.0 mm
09:02 53.2 °F /  11.8 °C 48.2 °F /  9.0 °C 30.2 in /  1021.2 hPa WSW 6 mph /  9.7 km/h 10 mph /  16.1 km/h 83 % 0 in /  0.0 mm
09:07 53.2 °F /  11.8 °C 47.5 °F /  8.6 °C 30.2 in /  1021.2 hPa West 4 mph /  6.4 km/h 10 mph /  16.1 km/h 81 % 0 in /  0.0 mm
09:12 53.8 °F /  12.1 °C 48 °F /  8.9 °C 30.2 in /  1021.6 hPa WSW 6 mph /  9.7 km/h 10 mph /  16.1 km/h 81 % 0 in /  0.0 mm
09:17 54.1 °F /  12.3 °C 47.8 °F /  8.8 °C 30.2 in /  1021.6 hPa West 4 mph /  6.4 km/h 12 mph /  19.3 km/h 79 % 0 in /  0.0 mm
09:22 54.3 °F /  12.4 °C 47.7 °F /  8.7 °C 30.2 in /  1021.6 hPa West 5 mph /  8.0 km/h 13 mph /  20.9 km/h 78 % 0 in /  0.0 mm
09:27 54.3 °F /  12.4 °C 47.7 °F /  8.7 °C 30.2 in /  1021.6 hPa WSW 4 mph /  6.4 km/h 13 mph /  20.9 km/h 78 % 0 in /  0.0 mm
09:32 54.5 °F /  12.5 °C 47.5 °F /  8.6 °C 30.2 in /  1021.6 hPa WSW 8 mph /  12.9 km/h 13 mph /  20.9 km/h 77 % 0 in /  0.0 mm
09:37 54.7 °F /  12.6 °C 47.3 °F /  8.5 °C 30.2 in /  1021.6 hPa WSW 11 mph /  17.7 km/h 13 mph /  20.9 km/h 76 % 0 in /  0.0 mm
09:42 55 °F /  12.8 °C 47.7 °F /  8.7 °C 30.2 in /  1021.6 hPa West 4 mph /  6.4 km/h 14 mph /  22.5 km/h 76 % 0 in /  0.0 mm
09:47 55.4 °F /  13.0 °C 47.7 °F /  8.7 °C 30.2 in /  1021.6 hPa WSW 10 mph /  16.1 km/h 14 mph /  22.5 km/h 75 % 0 in /  0.0 mm
09:52 55.2 °F /  12.9 °C 47.1 °F /  8.4 °C 30.2 in /  1021.6 hPa WSW 7 mph /  11.3 km/h 14 mph /  22.5 km/h 74 % 0 in /  0.0 mm
10:02 55.6 °F /  13.1 °C 47.8 °F /  8.8 °C 30.2 in /  1021.6 hPa SW 4 mph /  6.4 km/h 16 mph /  25.7 km/h 75 % 0 in /  0.0 mm
10:07 55.9 °F /  13.3 °C 48.2 °F /  9.0 °C 30.2 in /  1021.6 hPa WSW 7 mph /  11.3 km/h 16 mph /  25.7 km/h 75 % 0 in /  0.0 mm
10:12 56.1 °F /  13.4 °C 47.3 °F /  8.5 °C 30.2 in /  1021.6 hPa WSW 5 mph /  8.0 km/h 15 mph /  24.1 km/h 72 % 0 in /  0.0 mm
10:17 56.3 °F /  13.5 °C 47.8 °F /  8.8 °C 30.2 in /  1021.6 hPa SSW 7 mph /  11.3 km/h 15 mph /  24.1 km/h 73 % 0 in /  0.0 mm
10:22 56.8 °F /  13.8 °C 48.6 °F /  9.2 °C 30.2 in /  1021.6 hPa West 9 mph /  14.5 km/h 15 mph /  24.1 km/h 74 % 0 in /  0.0 mm
10:32 56.8 °F /  13.8 °C 46.4 °F /  8.0 °C 30.2 in /  1021.6 hPa WSW 4 mph /  6.4 km/h 12 mph /  19.3 km/h 68 % 0 in /  0.0 mm
10:37 57 °F /  13.9 °C 46.6 °F /  8.1 °C 30.2 in /  1021.9 hPa West 4 mph /  6.4 km/h 14 mph /  22.5 km/h 68 % 0 in /  0.0 mm
10:42 56.8 °F /  13.8 °C 46.8 °F /  8.2 °C 30.2 in /  1021.6 hPa West 5 mph /  8.0 km/h 14 mph /  22.5 km/h 69 % 0 in /  0.0 mm
10:47 57 °F /  13.9 °C 46.9 °F /  8.3 °C 30.2 in /  1021.9 hPa WNW 7 mph /  11.3 km/h 13 mph /  20.9 km/h 69 % 0 in /  0.0 mm
10:57 57.6 °F /  14.2 °C 46.8 °F /  8.2 °C 30.2 in /  1021.9 hPa SW 5 mph /  8.0 km/h 14 mph /  22.5 km/h 67 % 0 in /  0.0 mm
11:02 57.4 °F /  14.1 °C 45.3 °F /  7.4 °C 30.2 in /  1021.9 hPa WSW 8 mph /  12.9 km/h 14 mph /  22.5 km/h 64 % 0 in /  0.0 mm
11:07 57.4 °F /  14.1 °C 46 °F /  7.8 °C 30.2 in /  1021.9 hPa WNW 6 mph /  9.7 km/h 14 mph /  22.5 km/h 66 % 0 in /  0.0 mm
11:12 57.9 °F /  14.4 °C 45.9 °F /  7.7 °C 30.2 in /  1021.9 hPa SW 5 mph /  8.0 km/h 14 mph /  22.5 km/h 64 % 0 in /  0.0 mm
11:17 58.1 °F /  14.5 °C 46 °F /  7.8 °C 30.2 in /  1021.9 hPa West 6 mph /  9.7 km/h 13 mph /  20.9 km/h 64 % 0 in /  0.0 mm
11:22 58.6 °F /  14.8 °C 48.2 °F /  9.0 °C 30.2 in /  1021.9 hPa SW 6 mph /  9.7 km/h 13 mph /  20.9 km/h 68 % 0 in /  0.0 mm
11:32 59.4 °F /  15.2 °C 46.8 °F /  8.2 °C 30.2 in /  1021.9 hPa West 9 mph /  14.5 km/h 15 mph /  24.1 km/h 63 % 0 in /  0.0 mm
11:37 58.8 °F /  14.9 °C 45.9 °F /  7.7 °C 30.2 in /  1021.9 hPa WSW 12 mph /  19.3 km/h 15 mph /  24.1 km/h 62 % 0 in /  0.0 mm
11:42 58.8 °F /  14.9 °C 46.6 °F /  8.1 °C 30.2 in /  1021.9 hPa West 3 mph /  4.8 km/h 16 mph /  25.7 km/h 64 % 0 in /  0.0 mm
11:47 59.7 °F /  15.4 °C 47.1 °F /  8.4 °C 30.2 in /  1021.9 hPa WSW 5 mph /  8.0 km/h 16 mph /  25.7 km/h 63 % 0 in /  0.0 mm
11:52 59.7 °F /  15.4 °C 45.9 °F /  7.7 °C 30.2 in /  1021.9 hPa WSW 9 mph /  14.5 km/h 16 mph /  25.7 km/h 60 % 0 in /  0.0 mm
11:57 59 °F /  15.0 °C 45.5 °F /  7.5 °C 30.2 in /  1022.2 hPa WSW 2 mph /  3.2 km/h 13 mph /  20.9 km/h 61 % 0 in /  0.0 mm
12:02 59.4 °F /  15.2 °C 46.8 °F /  8.2 °C 30.2 in /  1021.9 hPa NW 7 mph /  11.3 km/h 13 mph /  20.9 km/h 63 % 0 in /  0.0 mm
12:07 59.2 °F /  15.1 °C 46.6 °F /  8.1 °C 30.2 in /  1021.9 hPa WSW 7 mph /  11.3 km/h 12 mph /  19.3 km/h 63 % 0 in /  0.0 mm
12:12 59.2 °F /  15.1 °C 46.2 °F /  7.9 °C 30.2 in /  1021.9 hPa West 6 mph /  9.7 km/h 12 mph /  19.3 km/h 62 % 0 in /  0.0 mm
12:17 59.5 °F /  15.3 °C 46.9 °F /  8.3 °C 30.2 in /  1022.2 hPa West 5 mph /  8.0 km/h 11 mph /  17.7 km/h 63 % 0 in /  0.0 mm
12:22 60.1 °F /  15.6 °C 46.9 °F /  8.3 °C 30.2 in /  1021.9 hPa West 7 mph /  11.3 km/h 14 mph /  22.5 km/h 62 % 0 in /  0.0 mm
12:27 60.4 °F /  15.8 °C 48.2 °F /  9.0 °C 30.2 in /  1022.2 hPa WNW 9 mph /  14.5 km/h 14 mph /  22.5 km/h 64 % 0 in /  0.0 mm
12:32 59.9 °F /  15.5 °C 46 °F /  7.8 °C 30.2 in /  1022.2 hPa WNW 11 mph /  17.7 km/h 19 mph /  30.6 km/h 60 % 0 in /  0.0 mm
12:42 59.2 °F /  15.1 °C 46.6 °F /  8.1 °C 30.2 in /  1022.2 hPa WSW 6 mph /  9.7 km/h 19 mph /  30.6 km/h 63 % 0 in /  0.0 mm
12:47 59 °F /  15.0 °C 46 °F /  7.8 °C 30.2 in /  1022.2 hPa West 6 mph /  9.7 km/h 18 mph /  29.0 km/h 62 % 0 in /  0.0 mm
12:52 59.5 °F /  15.3 °C 46.6 °F /  8.1 °C 30.2 in /  1021.9 hPa West 5 mph /  8.0 km/h 15 mph /  24.1 km/h 62 % 0 in /  0.0 mm
12:57 59.7 °F /  15.4 °C 45.9 °F /  7.7 °C 30.2 in /  1021.9 hPa WSW 7 mph /  11.3 km/h 12 mph /  19.3 km/h 60 % 0 in /  0.0 mm
13:02 59.7 °F /  15.4 °C 46.2 °F /  7.9 °C 30.2 in /  1022.2 hPa WNW 7 mph /  11.3 km/h 14 mph /  22.5 km/h 61 % 0 in /  0.0 mm
13:07 59.9 °F /  15.5 °C 46.8 °F /  8.2 °C 30.2 in /  1022.2 hPa WSW 15 mph /  24.1 km/h 15 mph /  24.1 km/h 62 % 0 in /  0.0 mm
13:12 60.4 °F /  15.8 °C 46.4 °F /  8.0 °C 30.2 in /  1022.2 hPa West 9 mph /  14.5 km/h 16 mph /  25.7 km/h 60 % 0 in /  0.0 mm
13:17 61.3 °F /  16.3 °C 46.9 °F /  8.3 °C 30.2 in /  1021.9 hPa WSW 8 mph /  12.9 km/h 17 mph /  27.4 km/h 59 % 0 in /  0.0 mm
13:22 61.9 °F /  16.6 °C 46 °F /  7.8 °C 30.2 in /  1021.9 hPa WSW 8 mph /  12.9 km/h 17 mph /  27.4 km/h 56 % 0 in /  0.0 mm
13:27 61.5 °F /  16.4 °C 46.2 °F /  7.9 °C 30.2 in /  1021.9 hPa West 5 mph /  8.0 km/h 15 mph /  24.1 km/h 57 % 0 in /  0.0 mm
13:32 61.2 °F /  16.2 °C 45.9 °F /  7.7 °C 30.2 in /  1022.2 hPa WNW 7 mph /  11.3 km/h 15 mph /  24.1 km/h 57 % 0 in /  0.0 mm
13:42 61.2 °F /  16.2 °C 46.8 °F /  8.2 °C 30.2 in /  1021.9 hPa WNW 6 mph /  9.7 km/h 15 mph /  24.1 km/h 59 % 0 in /  0.0 mm
13:47 61 °F /  16.1 °C 46.6 °F /  8.1 °C 30.2 in /  1021.9 hPa NW 10 mph /  16.1 km/h 13 mph /  20.9 km/h 59 % 0 in /  0.0 mm
13:52 61.3 °F /  16.3 °C 47.3 °F /  8.5 °C 30.2 in /  1021.9 hPa West 9 mph /  14.5 km/h 13 mph /  20.9 km/h 60 % 0 in /  0.0 mm
13:57 61.5 °F /  16.4 °C 44.8 °F /  7.1 °C 30.2 in /  1021.9 hPa WSW 6 mph /  9.7 km/h 13 mph /  20.9 km/h 54 % 0 in /  0.0 mm
14:02 61.9 °F /  16.6 °C 45.5 °F /  7.5 °C 30.2 in /  1021.9 hPa WSW 16 mph /  25.7 km/h 16 mph /  25.7 km/h 55 % 0 in /  0.0 mm
14:07 61.9 °F /  16.6 °C 46.4 °F /  8.0 °C 30.2 in /  1021.9 hPa West 6 mph /  9.7 km/h 18 mph /  29.0 km/h 57 % 0 in /  0.0 mm
14:12 61.9 °F /  16.6 °C 46.9 °F /  8.3 °C 30.2 in /  1021.9 hPa WNW 8 mph /  12.9 km/h 19 mph /  30.6 km/h 58 % 0 in /  0.0 mm
14:17 62.2 °F /  16.8 °C 46.8 °F /  8.2 °C 30.2 in /  1021.9 hPa WNW 7 mph /  11.3 km/h 19 mph /  30.6 km/h 57 % 0 in /  0.0 mm
14:22 63 °F /  17.2 °C 46.9 °F /  8.3 °C 30.2 in /  1021.9 hPa West 8 mph /  12.9 km/h 19 mph /  30.6 km/h 56 % 0 in /  0.0 mm
14:27 63.1 °F /  17.3 °C 46.8 °F /  8.2 °C 30.2 in /  1021.9 hPa SW 6 mph /  9.7 km/h 17 mph /  27.4 km/h 55 % 0 in /  0.0 mm
14:32 63.9 °F /  17.7 °C 48.4 °F /  9.1 °C 30.2 in /  1021.9 hPa West 6 mph /  9.7 km/h 15 mph /  24.1 km/h 57 % 0 in /  0.0 mm
14:37 64 °F /  17.8 °C 47.5 °F /  8.6 °C 30.2 in /  1021.9 hPa West 6 mph /  9.7 km/h 15 mph /  24.1 km/h 55 % 0 in /  0.0 mm
14:42 63.5 °F /  17.5 °C 47.5 °F /  8.6 °C 30.2 in /  1021.9 hPa SW 4 mph /  6.4 km/h 15 mph /  24.1 km/h 56 % 0 in /  0.0 mm
14:47 63.1 °F /  17.3 °C 48.2 °F /  9.0 °C 30.2 in /  1021.9 hPa West 6 mph /  9.7 km/h 13 mph /  20.9 km/h 58 % 0 in /  0.0 mm
14:52 63.1 °F /  17.3 °C 47.7 °F /  8.7 °C 30.2 in /  1021.9 hPa WSW 9 mph /  14.5 km/h 14 mph /  22.5 km/h 57 % 0 in /  0.0 mm
14:57 63.3 °F /  17.4 °C 47.8 °F /  8.8 °C 30.2 in /  1021.9 hPa SW 6 mph /  9.7 km/h 14 mph /  22.5 km/h 57 % 0 in /  0.0 mm
15:02 63.7 °F /  17.6 °C 47.7 °F /  8.7 °C 30.2 in /  1021.6 hPa SSW 9 mph /  14.5 km/h 17 mph /  27.4 km/h 56 % 0 in /  0.0 mm
15:07 63.3 °F /  17.4 °C 47.8 °F /  8.8 °C 30.2 in /  1021.6 hPa West 8 mph /  12.9 km/h 17 mph /  27.4 km/h 57 % 0 in /  0.0 mm
15:12 63.5 °F /  17.5 °C 47.5 °F /  8.6 °C 30.2 in /  1021.6 hPa SW 4 mph /  6.4 km/h 17 mph /  27.4 km/h 56 % 0 in /  0.0 mm
15:17 63.9 °F /  17.7 °C 48.7 °F /  9.3 °C 30.2 in /  1021.6 hPa WNW 4 mph /  6.4 km/h 16 mph /  25.7 km/h 58 % 0 in /  0.0 mm
15:22 64.4 °F /  18.0 °C 47.8 °F /  8.8 °C 30.2 in /  1021.6 hPa WSW 7 mph /  11.3 km/h 12 mph /  19.3 km/h 55 % 0 in /  0.0 mm
15:27 64.6 °F /  18.1 °C 48.6 °F /  9.2 °C 30.2 in /  1021.6 hPa West 12 mph /  19.3 km/h 14 mph /  22.5 km/h 56 % 0 in /  0.0 mm
15:32 64.9 °F /  18.3 °C 49.3 °F /  9.6 °C 30.2 in /  1021.6 hPa WNW 4 mph /  6.4 km/h 16 mph /  25.7 km/h 57 % 0 in /  0.0 mm
15:37 64.4 °F /  18.0 °C 47.8 °F /  8.8 °C 30.2 in /  1021.6 hPa West 5 mph /  8.0 km/h 16 mph /  25.7 km/h 55 % 0 in /  0.0 mm
15:42 64.2 °F /  17.9 °C 48.7 °F /  9.3 °C 30.2 in /  1021.6 hPa WSW 6 mph /  9.7 km/h 16 mph /  25.7 km/h 57 % 0 in /  0.0 mm
15:47 64.6 °F /  18.1 °C 48.6 °F /  9.2 °C 30.2 in /  1021.6 hPa WSW 10 mph /  16.1 km/h 12 mph /  19.3 km/h 56 % 0 in /  0.0 mm
15:52 64.8 °F /  18.2 °C 48.7 °F /  9.3 °C 30.2 in /  1021.6 hPa WSW 3 mph /  4.8 km/h 10 mph /  16.1 km/h 56 % 0 in /  0.0 mm
15:57 64.9 °F /  18.3 °C 47.8 °F /  8.8 °C 30.2 in /  1021.6 hPa West 7 mph /  11.3 km/h 10 mph /  16.1 km/h 54 % 0 in /  0.0 mm
16:02 64.2 °F /  17.9 °C 48.2 °F /  9.0 °C 30.2 in /  1021.6 hPa WSW 7 mph /  11.3 km/h 15 mph /  24.1 km/h 56 % 0 in /  0.0 mm
16:07 64.4 °F /  18.0 °C 48.4 °F /  9.1 °C 30.2 in /  1021.6 hPa SSW 4 mph /  6.4 km/h 15 mph /  24.1 km/h 56 % 0 in /  0.0 mm
16:12 64.9 °F /  18.3 °C 47.5 °F /  8.6 °C 30.2 in /  1021.6 hPa SW 9 mph /  14.5 km/h 15 mph /  24.1 km/h 53 % 0 in /  0.0 mm
16:17 65.1 °F /  18.4 °C 47.5 °F /  8.6 °C 30.2 in /  1021.6 hPa WSW 5 mph /  8.0 km/h 13 mph /  20.9 km/h 53 % 0 in /  0.0 mm
16:22 64.9 °F /  18.3 °C 47.5 °F /  8.6 °C 30.2 in /  1021.6 hPa West 8 mph /  12.9 km/h 13 mph /  20.9 km/h 53 % 0 in /  0.0 mm
16:27 64.8 °F /  18.2 °C 48.2 °F /  9.0 °C 30.2 in /  1021.6 hPa WNW 8 mph /  12.9 km/h 13 mph /  20.9 km/h 55 % 0 in /  0.0 mm
16:32 65.3 °F /  18.5 °C 48.7 °F /  9.3 °C 30.2 in /  1021.6 hPa West 1 mph /  1.6 km/h 12 mph /  19.3 km/h 55 % 0 in /  0.0 mm
16:37 66 °F /  18.9 °C 47.8 °F /  8.8 °C 30.2 in /  1021.6 hPa West 6 mph /  9.7 km/h 11 mph /  17.7 km/h 52 % 0 in /  0.0 mm
16:42 66 °F /  18.9 °C 47.8 °F /  8.8 °C 30.2 in /  1021.6 hPa West 2 mph /  3.2 km/h 11 mph /  17.7 km/h 52 % 0 in /  0.0 mm
16:52 66.4 °F /  19.1 °C 47.7 °F /  8.7 °C 30.2 in /  1021.6 hPa West 2 mph /  3.2 km/h 14 mph /  22.5 km/h 51 % 0 in /  0.0 mm
17:02 65.7 °F /  18.7 °C 49.1 °F /  9.5 °C 30.2 in /  1021.6 hPa West 5 mph /  8.0 km/h 12 mph /  19.3 km/h 55 % 0 in /  0.0 mm
17:12 65.8 °F /  18.8 °C 48.2 °F /  9.0 °C 30.2 in /  1021.6 hPa WSW 5 mph /  8.0 km/h 11 mph /  17.7 km/h 53 % 0 in /  0.0 mm
17:17 66.4 °F /  19.1 °C 48.2 °F /  9.0 °C 30.2 in /  1021.6 hPa West 5 mph /  8.0 km/h 11 mph /  17.7 km/h 52 % 0 in /  0.0 mm
17:22 66.2 °F /  19.0 °C 48 °F /  8.9 °C 30.2 in /  1021.6 hPa WSW 5 mph /  8.0 km/h 11 mph /  17.7 km/h 52 % 0 in /  0.0 mm
17:27 66.6 °F /  19.2 °C 48.4 °F /  9.1 °C 30.2 in /  1021.6 hPa WSW 2 mph /  3.2 km/h 12 mph /  19.3 km/h 52 % 0 in /  0.0 mm
17:32 66.7 °F /  19.3 °C 48 °F /  8.9 °C 30.2 in /  1021.6 hPa West 4 mph /  6.4 km/h 12 mph /  19.3 km/h 51 % 0 in /  0.0 mm
17:37 66.7 °F /  19.3 °C 49.1 °F /  9.5 °C 30.2 in /  1021.6 hPa WSW 5 mph /  8.0 km/h 12 mph /  19.3 km/h 53 % 0 in /  0.0 mm
17:42 66.6 °F /  19.2 °C 47.3 °F /  8.5 °C 30.2 in /  1021.6 hPa WSW 8 mph /  12.9 km/h 11 mph /  17.7 km/h 50 % 0 in /  0.0 mm
17:47 65.7 °F /  18.7 °C 47.5 °F /  8.6 °C 30.2 in /  1021.6 hPa West 7 mph /  11.3 km/h 12 mph /  19.3 km/h 52 % 0 in /  0.0 mm
17:52 65.3 °F /  18.5 °C 46.2 °F /  7.9 °C 30.2 in /  1021.6 hPa WSW 2 mph /  3.2 km/h 12 mph /  19.3 km/h 50 % 0 in /  0.0 mm
17:57 65.7 °F /  18.7 °C 47.5 °F /  8.6 °C 30.2 in /  1021.6 hPa WSW 3 mph /  4.8 km/h 12 mph /  19.3 km/h 52 % 0 in /  0.0 mm
18:02 65.8 °F /  18.8 °C 47.1 °F /  8.4 °C 30.2 in /  1021.6 hPa WSW 10 mph /  16.1 km/h 14 mph /  22.5 km/h 51 % 0 in /  0.0 mm
18:07 65.5 °F /  18.6 °C 46.9 °F /  8.3 °C 30.2 in /  1021.6 hPa SSW 5 mph /  8.0 km/h 14 mph /  22.5 km/h 51 % 0 in /  0.0 mm
18:12 65.8 °F /  18.8 °C 47.1 °F /  8.4 °C 30.2 in /  1021.6 hPa SW 2 mph /  3.2 km/h 14 mph /  22.5 km/h 51 % 0 in /  0.0 mm
18:17 66.6 °F /  19.2 °C 47.8 °F /  8.8 °C 30.2 in /  1021.6 hPa WSW 9 mph /  14.5 km/h 12 mph /  19.3 km/h 51 % 0 in /  0.0 mm
18:22 66.7 °F /  19.3 °C 47.5 °F /  8.6 °C 30.2 in /  1021.6 hPa West 6 mph /  9.7 km/h 13 mph /  20.9 km/h 50 % 0 in /  0.0 mm
18:32 65.8 °F /  18.8 °C 48.2 °F /  9.0 °C 30.2 in /  1021.2 hPa WSW 3 mph /  4.8 km/h 13 mph /  20.9 km/h 53 % 0 in /  0.0 mm
18:37 66 °F /  18.9 °C 48.4 °F /  9.1 °C 30.2 in /  1021.2 hPa WNW 3 mph /  4.8 km/h 12 mph /  19.3 km/h 53 % 0 in /  0.0 mm
18:42 66.6 °F /  19.2 °C 47.8 °F /  8.8 °C 30.2 in /  1021.2 hPa WSW 4 mph /  6.4 km/h 9 mph /  14.5 km/h 51 % 0 in /  0.0 mm
18:47 66.7 °F /  19.3 °C 48 °F /  8.9 °C 30.2 in /  1021.2 hPa West 5 mph /  8.0 km/h 7 mph /  11.3 km/h 51 % 0 in /  0.0 mm
18:52 65.8 °F /  18.8 °C 47.7 °F /  8.7 °C 30.2 in /  1021.2 hPa WSW 4 mph /  6.4 km/h 11 mph /  17.7 km/h 52 % 0 in /  0.0 mm
18:57 66.4 °F /  19.1 °C 48.2 °F /  9.0 °C 30.2 in /  1021.2 hPa WSW 6 mph /  9.7 km/h 11 mph /  17.7 km/h 52 % 0 in /  0.0 mm
19:02 66.6 °F /  19.2 °C 48.4 °F /  9.1 °C 30.2 in /  1021.2 hPa West 6 mph /  9.7 km/h 11 mph /  17.7 km/h 52 % 0 in /  0.0 mm
19:12 66.7 °F /  19.3 °C 48 °F /  8.9 °C 30.2 in /  1021.2 hPa SSW 2 mph /  3.2 km/h 12 mph /  19.3 km/h 51 % 0 in /  0.0 mm
19:17 66.7 °F /  19.3 °C 49.1 °F /  9.5 °C 30.2 in /  1021.2 hPa West 3 mph /  4.8 km/h 12 mph /  19.3 km/h 53 % 0 in /  0.0 mm
19:22 66.2 °F /  19.0 °C 48.6 °F /  9.2 °C 30.2 in /  1021.2 hPa WSW 4 mph /  6.4 km/h 9 mph /  14.5 km/h 53 % 0 in /  0.0 mm
19:27 65.8 °F /  18.8 °C 48.7 °F /  9.3 °C 30.2 in /  1021.2 hPa SW 3 mph /  4.8 km/h 7 mph /  11.3 km/h 54 % 0 in /  0.0 mm
19:32 65.8 °F /  18.8 °C 48.2 °F /  9.0 °C 30.2 in /  1021.2 hPa SW 3 mph /  4.8 km/h 8 mph /  12.9 km/h 53 % 0 in /  0.0 mm
19:37 66 °F /  18.9 °C 47.8 °F /  8.8 °C 30.2 in /  1021.2 hPa WSW 3 mph /  4.8 km/h 8 mph /  12.9 km/h 52 % 0 in /  0.0 mm
19:42 66.4 °F /  19.1 °C 49.3 °F /  9.6 °C 30.2 in /  1021.2 hPa SW 1 mph /  1.6 km/h 8 mph /  12.9 km/h 54 % 0 in /  0.0 mm
19:47 66.6 °F /  19.2 °C 48.9 °F /  9.4 °C 30.2 in /  1021.2 hPa West 2 mph /  3.2 km/h 7 mph /  11.3 km/h 53 % 0 in /  0.0 mm
19:52 66.4 °F /  19.1 °C 48.2 °F /  9.0 °C 30.2 in /  1021.2 hPa West 5 mph /  8.0 km/h 7 mph /  11.3 km/h 52 % 0 in /  0.0 mm
19:57 65.8 °F /  18.8 °C 48.2 °F /  9.0 °C 30.2 in /  1021.2 hPa West 4 mph /  6.4 km/h 10 mph /  16.1 km/h 53 % 0 in /  0.0 mm
20:07 64.8 °F /  18.2 °C 48.7 °F /  9.3 °C 30.2 in /  1021.2 hPa West 4 mph /  6.4 km/h 11 mph /  17.7 km/h 56 % 0 in /  0.0 mm
20:12 64.6 °F /  18.1 °C 48.9 °F /  9.4 °C 30.2 in /  1021.2 hPa WSW 1 mph /  1.6 km/h 11 mph /  17.7 km/h 57 % 0 in /  0.0 mm
20:17 64.2 °F /  17.9 °C 48.7 °F /  9.3 °C 30.2 in /  1021.2 hPa West 2 mph /  3.2 km/h 8 mph /  12.9 km/h 57 % 0 in /  0.0 mm
20:22 64 °F /  17.8 °C 48.9 °F /  9.4 °C 30.2 in /  1021.6 hPa WSW 1 mph /  1.6 km/h 5 mph /  8.0 km/h 58 % 0 in /  0.0 mm
20:27 63.9 °F /  17.7 °C 48.7 °F /  9.3 °C 30.2 in /  1021.6 hPa WSW 1 mph /  1.6 km/h 3 mph /  4.8 km/h 58 % 0 in /  0.0 mm
20:37 64.2 °F /  17.9 °C 49.1 °F /  9.5 °C 30.2 in /  1021.6 hPa SW 3 mph /  4.8 km/h 3 mph /  4.8 km/h 58 % 0 in /  0.0 mm
20:42 64.4 °F /  18.0 °C 48.9 °F /  9.4 °C 30.2 in /  1021.6 hPa SW 2 mph /  3.2 km/h 4 mph /  6.4 km/h 57 % 0 in /  0.0 mm
20:52 64.2 °F /  17.9 °C 48.7 °F /  9.3 °C 30.2 in /  1021.6 hPa SW 2 mph /  3.2 km/h 7 mph /  11.3 km/h 57 % 0 in /  0.0 mm
20:57 64 °F /  17.8 °C 48 °F /  8.9 °C 30.2 in /  1021.6 hPa WSW 2 mph /  3.2 km/h 7 mph /  11.3 km/h 56 % 0 in /  0.0 mm
21:02 63.7 °F /  17.6 °C 48.6 °F /  9.2 °C 30.2 in /  1021.6 hPa SW 2 mph /  3.2 km/h 6 mph /  9.7 km/h 58 % 0 in /  0.0 mm
21:07 63.3 °F /  17.4 °C 48.4 °F /  9.1 °C 30.2 in /  1021.6 hPa SW 4 mph /  6.4 km/h 6 mph /  9.7 km/h 58 % 0 in /  0.0 mm
21:12 63.1 °F /  17.3 °C 48.6 °F /  9.2 °C 30.2 in /  1021.2 hPa SW 2 mph /  3.2 km/h 6 mph /  9.7 km/h 59 % 0 in /  0.0 mm
21:17 62.8 °F /  17.1 °C 48.7 °F /  9.3 °C 30.2 in /  1021.2 hPa SW 2 mph /  3.2 km/h 5 mph /  8.0 km/h 60 % 0 in /  0.0 mm
21:22 62.2 °F /  16.8 °C 49.1 °F /  9.5 °C 30.2 in /  1021.6 hPa Calm   4 mph /  6.4 km/h 62 % 0 in /  0.0 mm
21:32 61.2 °F /  16.2 °C 49.3 °F /  9.6 °C 30.2 in /  1021.6 hPa Calm   3 mph /  4.8 km/h 65 % 0 in /  0.0 mm
21:37 60.6 °F /  15.9 °C 50 °F /  10.0 °C 30.2 in /  1021.6 hPa Calm   2 mph /  3.2 km/h 68 % 0 in /  0.0 mm
21:42 60.1 °F /  15.6 °C 49.8 °F /  9.9 °C 30.2 in /  1021.6 hPa Calm   2 mph /  3.2 km/h 69 % 0 in /  0.0 mm
21:47 59.5 °F /  15.3 °C 49.3 °F /  9.6 °C 30.2 in /  1021.6 hPa Calm   1 mph /  1.6 km/h 69 % 0 in /  0.0 mm
21:52 59 °F /  15.0 °C 50 °F /  10.0 °C 30.2 in /  1021.6 hPa Calm     72 % 0 in /  0.0 mm
21:57 58.5 °F /  14.7 °C 50.2 °F /  10.1 °C 30.2 in /  1021.6 hPa Calm     74 % 0 in /  0.0 mm
22:02 57.9 °F /  14.4 °C 50 °F /  10.0 °C 30.2 in /  1021.6 hPa Calm     75 % 0 in /  0.0 mm
22:07 57.6 °F /  14.2 °C 50 °F /  10.0 °C 30.2 in /  1021.6 hPa Calm     76 % 0 in /  0.0 mm
22:12 57.4 °F /  14.1 °C 49.8 °F /  9.9 °C 30.2 in /  1021.6 hPa Calm     76 % 0 in /  0.0 mm
22:17 57.2 °F /  14.0 °C 50 °F /  10.0 °C 30.2 in /  1021.6 hPa Calm     77 % 0 in /  0.0 mm
22:22 57 °F /  13.9 °C 49.8 °F /  9.9 °C 30.2 in /  1021.6 hPa Calm     77 % 0 in /  0.0 mm
22:27 57 °F /  13.9 °C 50.2 °F /  10.1 °C 30.2 in /  1021.6 hPa Calm     78 % 0 in /  0.0 mm
22:32 56.5 °F /  13.6 °C 49.6 °F /  9.8 °C 30.2 in /  1021.6 hPa Calm     78 % 0 in /  0.0 mm
22:37 55.9 °F /  13.3 °C 49.5 °F /  9.7 °C 30.2 in /  1021.6 hPa Calm     79 % 0 in /  0.0 mm
22:42 55.4 °F /  13.0 °C 49.3 °F /  9.6 °C 30.2 in /  1021.9 hPa Calm     80 % 0 in /  0.0 mm
22:47 55 °F /  12.8 °C 49.3 °F /  9.6 °C 30.2 in /  1021.9 hPa Calm     81 % 0 in /  0.0 mm
22:52 54.9 °F /  12.7 °C 49.5 °F /  9.7 °C 30.2 in /  1021.6 hPa Calm     82 % 0 in /  0.0 mm
22:57 54.7 °F /  12.6 °C 49.3 °F /  9.6 °C 30.2 in /  1021.9 hPa Calm     82 % 0 in /  0.0 mm
23:02 54.7 °F /  12.6 °C 49.3 °F /  9.6 °C 30.2 in /  1021.9 hPa Calm     82 % 0 in /  0.0 mm
23:12 54.3 °F /  12.4 °C 49.3 °F /  9.6 °C 30.2 in /  1021.6 hPa Calm     83 % 0 in /  0.0 mm
23:17 54.1 °F /  12.3 °C 49.1 °F /  9.5 °C 30.2 in /  1021.6 hPa Calm     83 % 0 in /  0.0 mm
23:22 54 °F /  12.2 °C 48.9 °F /  9.4 °C 30.2 in /  1021.6 hPa Calm     83 % 0 in /  0.0 mm
23:27 54 °F /  12.2 °C 48.9 °F /  9.4 °C 30.2 in /  1021.9 hPa Calm     83 % 0 in /  0.0 mm
23:32 53.8 °F /  12.1 °C 49.1 °F /  9.5 °C 30.2 in /  1021.6 hPa Calm     84 % 0 in /  0.0 mm
23:37 53.4 °F /  11.9 °C 49.1 °F /  9.5 °C 30.2 in /  1021.6 hPa Calm     85 % 0 in /  0.0 mm
23:42 53.4 °F /  11.9 °C 49.1 °F /  9.5 °C 30.2 in /  1021.6 hPa Calm     85 % 0 in /  0.0 mm
23:47 53.2 °F /  11.8 °C 48.9 °F /  9.4 °C 30.2 in /  1021.6 hPa Calm     85 % 0 in /  0.0 mm
23:52 53.1 °F /  11.7 °C 48.9 °F /  9.4 °C 30.2 in /  1021.6 hPa Calm     86 % 0 in /  0.0 mm
23:57 52.9 °F /  11.6 °C 48.7 °F /  9.3 °C 30.2 in /  1021.6 hPa Calm     86 % 0 in /  0.0 mm
Meteo18
Compliments of Weather Underground - 4 mb

Script developed by  Jim McMurry - jmcmurry@mwt.net Adapted for the template by  Wim van der Kuil - Leuven-Template.eu

You find our weather info also at:

European Weather Network

Weather Underground

Equipment we use:

Weather-station
Davis Vue

Weather-program
Meteohub

Weather-server
Raspberry PI 2 B+

Provider
1 and 1

Davis Vue

Meteohub

Raspberry PI 2 B+

1 and 1